Time;durP1;ratioP1;P1;durP2;ratioP2;P2;SDS_P1;SDS_P2;PMS_P1;PMS_P2;Temp;Humidity;BMP_temperature;BMP_pressure;BME280_temperature;BME280_humidity;BME280_pressure;Samples;Min_cycle;Max_cycle;Signal;HPM_P1;HPM_P2
2023/08/21 00:01:15;;;;;;;10.82;10.00;;;;;;;22.62;61.98;93240.28;5069426;28;20324;-74
2023/08/21 00:03:41;;;;;;;11.10;10.30;;;;;;;22.44;62.58;93237.09;5085400;28;20240;-74
2023/08/21 00:06:06;;;;;;;10.75;9.82;;;;;;;22.50;62.28;93233.09;5073097;28;20218;-73
2023/08/21 00:08:31;;;;;;;11.88;10.75;;;;;;;22.41;62.01;93229.78;5071114;28;20228;-74
2023/08/21 00:10:57;;;;;;;11.10;10.20;;;;;;;22.35;62.43;93231.09;5073031;28;20866;-74
2023/08/21 00:13:22;;;;;;;11.25;10.25;;;;;;;22.35;61.78;93230.34;5072218;28;20321;-74
2023/08/21 00:15:47;;;;;;;10.85;9.85;;;;;;;22.34;61.50;93234.88;5073014;28;20197;-74
2023/08/21 00:18:14;;;;;;;9.90;9.20;;;;;;;22.38;60.90;93237.66;5072329;28;20245;-74
2023/08/21 00:20:41;;;;;;;10.80;9.90;;;;;;;22.41;61.00;93235.09;5072613;28;20203;-74
2023/08/21 00:23:07;;;;;;;10.63;9.73;;;;;;;22.40;61.23;93241.53;5072482;28;20900;-74
2023/08/21 00:25:33;;;;;;;11.00;10.02;;;;;;;22.35;61.59;93233.75;5060248;28;20217;-74
2023/08/21 00:27:58;;;;;;;10.75;9.77;;;;;;;22.31;60.75;93235.56;5072505;28;20228;-74
2023/08/21 00:30:24;;;;;;;10.57;9.77;;;;;;;22.45;60.59;93230.66;5072703;28;20209;-74
2023/08/21 00:32:49;;;;;;;11.05;10.02;;;;;;;22.51;60.30;93228.53;5071962;28;20225;-74
2023/08/21 00:35:14;;;;;;;10.43;9.52;;;;;;;22.44;60.97;93223.78;5072281;28;20280;-74
2023/08/21 00:37:40;;;;;;;9.60;8.98;;;;;;;22.50;61.11;93233.09;5080620;28;20219;-74
2023/08/21 00:40:05;;;;;;;11.30;10.23;;;;;;;22.41;61.96;93219.13;5110409;28;20183;-74
2023/08/21 00:42:31;;;;;;;11.23;10.32;;;;;;;22.42;62.77;93226.00;5088860;28;20228;-74
2023/08/21 00:44:56;;;;;;;11.40;10.32;;;;;;;22.41;63.52;93234.31;5072783;28;20177;-74
2023/08/21 00:47:21;;;;;;;11.40;10.50;;;;;;;22.31;63.18;93238.22;5073340;28;20281;-74
2023/08/21 00:49:47;;;;;;;9.93;9.18;;;;;;;22.23;63.44;93242.56;5091819;28;20181;-74
2023/08/21 00:52:14;;;;;;;11.32;10.45;;;;;;;22.28;63.06;93246.88;5091859;28;20192;-74
2023/08/21 00:54:40;;;;;;;10.20;9.35;;;;;;;22.19;63.51;93239.00;5091994;28;20195;-74
2023/08/21 00:57:06;;;;;;;11.25;10.15;;;;;;;22.10;63.17;93248.97;5092001;28;20186;-74
2023/08/21 00:59:31;;;;;;;11.00;10.15;;;;;;;22.23;62.91;93247.88;5091594;28;20265;-74
2023/08/21 01:01:57;;;;;;;11.35;10.13;;;;;;;22.24;62.95;93246.00;5091840;28;20247;-74
2023/08/21 01:04:22;;;;;;;10.75;9.95;;;;;;;22.20;64.04;93245.09;5091563;28;20240;-74
2023/08/21 01:06:51;;;;;;;12.05;11.05;;;;;;;21.96;64.18;93245.88;5124640;28;20771;-74
2023/08/21 01:09:41;;;;;;;11.32;9.82;;;;;;;21.93;63.11;93245.78;5091167;28;20229;-74
2023/08/21 01:12:30;;;;;;;13.23;11.75;;;;;;;22.11;62.58;93252.44;5081017;28;20194;-74
2023/08/21 01:14:58;;;;;;;10.52;9.73;;;;;;;21.90;63.29;93252.53;5091346;28;20262;-74
2023/08/21 01:17:25;;;;;;;11.65;10.85;;;;;;;22.01;62.71;93247.53;5090724;28;20228;-74
2023/08/21 01:19:52;;;;;;;12.55;10.70;;;;;;;21.94;62.85;93250.00;5091391;28;20183;-74
2023/08/21 01:22:18;;;;;;;11.27;10.35;;;;;;;21.90;62.65;93249.88;5090448;28;20202;-74
2023/08/21 01:24:43;;;;;;;11.63;10.80;;;;;;;22.03;62.46;93250.66;5077854;28;20194;-74
2023/08/21 01:27:10;;;;;;;11.68;10.65;;;;;;;22.17;62.19;93246.56;5089606;28;20213;-74
2023/08/21 01:29:36;;;;;;;11.15;10.15;;;;;;;21.91;62.83;93248.00;5091466;28;20180;-74
2023/08/21 01:32:05;;;;;;;11.80;10.70;;;;;;;21.83;64.18;93240.91;5091209;28;20214;-74
2023/08/21 01:34:33;;;;;;;10.75;9.88;;;;;;;21.85;63.03;93238.69;5102815;28;20218;-79
2023/08/21 01:36:59;;;;;;;12.57;11.40;;;;;;;21.98;63.46;93248.22;5090696;28;20201;-76
2023/08/21 01:39:25;;;;;;;12.00;10.77;;;;;;;22.04;63.15;93252.19;5070909;28;20223;-76
2023/08/21 01:41:50;;;;;;;11.48;10.57;;;;;;;21.85;64.20;93241.34;5070615;28;20197;-75
2023/08/21 01:44:16;;;;;;;11.30;10.57;;;;;;;21.95;63.39;93248.88;5096836;28;20292;-76
2023/08/21 01:46:41;;;;;;;12.85;11.68;;;;;;;21.82;63.68;93247.34;5090918;28;20215;-76
2023/08/21 01:49:06;;;;;;;11.77;10.57;;;;;;;21.84;63.37;93247.75;5074025;28;20216;-76
2023/08/21 01:51:32;;;;;;;11.20;10.18;;;;;;;21.94;62.97;93260.63;5070365;28;20194;-76
2023/08/21 01:53:57;;;;;;;11.57;10.48;;;;;;;21.89;62.99;93250.22;5085464;28;20232;-76
2023/08/21 01:56:23;;;;;;;11.98;10.98;;;;;;;21.79;63.42;93242.69;5090571;28;20186;-75
2023/08/21 01:58:48;;;;;;;11.25;10.45;;;;;;;21.72;64.27;93235.22;5083265;28;20219;-75
2023/08/21 02:01:14;;;;;;;12.10;11.02;;;;;;;21.71;63.99;93238.22;5117341;28;20182;-77
2023/08/21 02:03:41;;;;;;;11.68;10.77;;;;;;;21.71;64.53;93240.88;5090260;28;20251;-76
2023/08/21 02:06:06;;;;;;;12.65;11.65;;;;;;;21.67;64.90;93237.31;5090467;28;20217;-76
2023/08/21 02:08:33;;;;;;;12.02;11.02;;;;;;;21.73;64.86;93239.44;5093941;28;20211;-76
2023/08/21 02:10:59;;;;;;;11.48;10.40;;;;;;;21.63;64.84;93236.44;5090383;28;20202;-75
2023/08/21 02:13:24;;;;;;;11.38;10.27;;;;;;;21.75;64.72;93236.47;5090199;28;20226;-76
2023/08/21 02:15:50;;;;;;;10.88;10.10;;;;;;;21.63;64.37;93244.41;5090891;28;20195;-75
2023/08/21 02:18:16;;;;;;;10.63;9.55;;;;;;;21.75;63.99;93241.78;5090088;28;20227;-75
2023/08/21 02:20:42;;;;;;;11.48;10.45;;;;;;;21.69;63.84;93235.09;5090472;28;20223;-76
2023/08/21 02:23:07;;;;;;;12.77;9.88;;;;;;;21.75;64.22;93237.25;5090250;28;20235;-76
2023/08/21 02:25:33;;;;;;;12.50;11.40;;;;;;;21.81;64.00;93237.78;5089446;28;20215;-76
2023/08/21 02:27:58;;;;;;;11.93;10.98;;;;;;;21.77;64.02;93239.56;5090185;28;20232;-76
2023/08/21 02:30:25;;;;;;;11.43;10.63;;;;;;;21.79;64.68;93227.50;5090356;28;20192;-78
2023/08/21 02:32:54;;;;;;;12.55;11.10;;;;;;;21.67;64.70;93226.69;5095832;28;20233;-76
2023/08/21 02:35:22;;;;;;;12.13;11.02;;;;;;;21.71;65.29;93227.59;5094859;28;20210;-76
2023/08/21 02:37:48;;;;;;;11.68;10.57;;;;;;;21.77;65.52;93231.59;5097534;28;20233;-75
2023/08/21 02:40:13;;;;;;;12.15;11.15;;;;;;;21.59;64.68;93225.69;5094747;28;20186;-76
2023/08/21 02:42:39;;;;;;;10.77;9.88;;;;;;;21.53;64.47;93234.19;5096590;28;20234;-75
2023/08/21 02:45:08;;;;;;;11.30;10.40;;;;;;;21.54;64.87;93238.41;5070305;28;20174;-76
2023/08/21 02:47:41;;;;;;;13.10;11.57;;;;;;;21.53;63.90;93236.84;5063368;28;20235;-75
2023/08/21 02:50:07;;;;;;;10.90;10.10;;;;;;;21.66;64.98;93233.91;5068780;28;20191;-75
2023/08/21 02:52:34;;;;;;;11.60;10.60;;;;;;;21.55;66.97;93232.78;5062350;28;20263;-75
2023/08/21 02:54:59;;;;;;;14.25;11.40;;;;;;;21.46;65.90;93232.09;5087088;28;20190;-76
2023/08/21 02:57:26;;;;;;;11.48;10.57;;;;;;;21.43;68.03;93232.72;5088587;28;20204;-75
2023/08/21 02:59:51;;;;;;;12.40;11.30;;;;;;;21.44;67.32;93234.31;5089557;28;20234;-76
2023/08/21 03:02:18;;;;;;;12.23;11.07;;;;;;;21.30;67.85;93238.38;5089620;28;20219;-75
2023/08/21 03:04:43;;;;;;;10.30;9.57;;;;;;;21.20;67.74;93228.94;5089365;28;20213;-76
2023/08/21 03:07:08;;;;;;;11.45;10.30;;;;;;;21.24;68.44;93237.81;5088608;28;20297;-75
2023/08/21 03:09:34;;;;;;;11.40;10.48;;;;;;;21.12;68.61;93231.69;5092993;28;20245;-76
2023/08/21 03:11:59;;;;;;;10.75;10.05;;;;;;;20.99;69.13;93228.22;5090103;28;20181;-72
2023/08/21 03:14:26;;;;;;;11.80;10.90;;;;;;;21.07;69.66;93240.63;5069445;28;20276;-73
2023/08/21 03:16:52;;;;;;;11.82;10.73;;;;;;;21.00;69.34;93228.97;5069461;28;20225;-73
2023/08/21 03:19:17;;;;;;;11.05;10.25;;;;;;;20.90;69.70;93234.69;5067954;28;20214;-73
2023/08/21 03:21:43;;;;;;;11.88;10.80;;;;;;;20.90;71.00;93239.97;5069559;28;21107;-74
2023/08/21 03:24:08;;;;;;;11.60;10.70;;;;;;;20.89;70.41;93241.09;5067830;28;20233;-73
2023/08/21 03:26:33;;;;;;;12.57;10.88;;;;;;;20.87;70.03;93244.06;5069369;28;20239;-73
2023/08/21 03:28:59;;;;;;;12.45;11.15;;;;;;;20.87;70.93;93246.72;5084159;28;20213;-73
2023/08/21 03:31:24;;;;;;;14.15;10.63;;;;;;;20.80;70.05;93243.03;5089750;28;20254;-73
2023/08/21 03:33:50;;;;;;;12.38;11.40;;;;;;;20.78;70.58;93247.91;5088911;28;20229;-73
2023/08/21 03:36:15;;;;;;;11.63;10.52;;;;;;;20.75;70.85;93248.56;5082174;28;20235;-73
2023/08/21 03:38:41;;;;;;;13.32;10.63;;;;;;;20.73;70.79;93248.88;5089137;28;20214;-74
2023/08/21 03:41:06;;;;;;;12.35;11.30;;;;;;;20.73;71.72;93250.75;5083294;28;20214;-73
2023/08/21 03:43:32;;;;;;;35.40;14.38;;;;;;;20.60;75.21;93245.38;5092781;28;20250;-73
2023/08/21 03:45:58;;;;;;;12.00;10.77;;;;;;;20.59;72.39;93237.75;5093875;28;20208;-74
2023/08/21 03:48:23;;;;;;;12.30;11.25;;;;;;;20.51;70.54;93236.69;5092780;28;20272;-73
2023/08/21 03:50:49;;;;;;;11.38;10.52;;;;;;;20.67;70.82;93242.19;5085866;28;20173;-73
2023/08/21 03:53:15;;;;;;;12.43;11.05;;;;;;;20.81;70.51;93253.31;5089645;28;20226;-74
2023/08/21 03:55:40;;;;;;;12.30;11.27;;;;;;;20.80;72.65;93251.78;5093235;28;20191;-73
2023/08/21 03:58:05;;;;;;;11.45;10.30;;;;;;;20.77;71.13;93236.50;5091558;28;20231;-73
2023/08/21 04:00:31;;;;;;;12.05;10.88;;;;;;;20.88;71.12;93252.78;5093005;28;20192;-73
2023/08/21 04:02:57;;;;;;;11.98;11.02;;;;;;;20.91;71.30;93260.09;5093138;28;20219;-73
2023/08/21 04:05:23;;;;;;;11.27;10.48;;;;;;;21.01;69.95;93254.44;5092784;28;20172;-73
2023/08/21 04:07:48;;;;;;;12.65;11.05;;;;;;;21.08;70.19;93252.81;5092530;28;20781;-73
2023/08/21 04:10:13;;;;;;;12.13;11.02;;;;;;;21.11;70.21;93251.38;5092551;28;20173;-74
2023/08/21 04:12:39;;;;;;;13.35;10.82;;;;;;;21.13;70.28;93259.78;5091728;28;20228;-73
2023/08/21 04:15:06;;;;;;;12.20;11.10;;;;;;;21.22;70.02;93263.13;5086438;28;20185;-73
2023/08/21 04:17:31;;;;;;;11.88;10.88;;;;;;;21.31;69.49;93263.84;5090554;28;20230;-71
2023/08/21 04:19:57;;;;;;;10.75;10.00;;;;;;;21.46;69.11;93263.19;5092626;28;20209;-72
2023/08/21 04:22:22;;;;;;;12.60;11.40;;;;;;;21.48;69.14;93266.31;5081237;28;20187;-72
2023/08/21 04:24:48;;;;;;;12.35;11.18;;;;;;;21.59;68.63;93259.44;5087926;28;20174;-72
2023/08/21 04:27:13;;;;;;;12.05;10.80;;;;;;;21.65;69.74;93271.44;5085400;28;20211;-69
2023/08/21 04:29:39;;;;;;;13.68;12.15;;;;;;;21.60;69.94;93263.69;5078881;28;20194;-72
2023/08/21 04:32:05;;;;;;;15.32;11.02;;;;;;;21.80;69.31;93278.78;5081972;28;20196;-69
2023/08/21 04:34:32;;;;;;;13.00;11.13;;;;;;;21.89;69.27;93272.25;5088299;28;20232;-69
2023/08/21 04:36:57;;;;;;;11.40;10.45;;;;;;;21.94;69.33;93265.94;5089345;28;20180;-69
2023/08/21 04:39:23;;;;;;;11.93;10.98;;;;;;;22.06;69.13;93277.38;5082107;28;20243;-69
2023/08/21 04:41:48;;;;;;;11.10;10.07;;;;;;;22.14;68.75;93273.03;5088068;28;20196;-69
2023/08/21 04:44:13;;;;;;;12.60;11.27;;;;;;;22.29;68.61;93279.56;5080808;28;20290;-69
2023/08/21 04:46:39;;;;;;;12.13;10.88;;;;;;;22.33;66.83;93265.28;5079194;28;20206;-69
2023/08/21 04:49:04;;;;;;;17.25;11.90;;;;;;;22.49;66.42;93282.09;5081334;28;20223;-69
2023/08/21 04:51:31;;;;;;;15.63;11.73;;;;;;;22.56;66.91;93263.72;5086283;28;20196;-68
2023/08/21 04:53:56;;;;;;;12.40;11.30;;;;;;;22.77;65.13;93272.28;5072716;28;20235;-69
2023/08/21 04:56:21;;;;;;;13.10;11.30;;;;;;;22.91;64.59;93275.34;5078646;28;20203;-67
2023/08/21 04:58:47;;;;;;;12.25;11.02;;;;;;;23.01;64.39;93274.09;5079816;28;20222;-70
2023/08/21 05:01:12;;;;;;;12.80;11.75;;;;;;;23.07;63.28;93283.41;5079106;28;20191;-68
2023/08/21 05:03:37;;;;;;;17.67;12.30;;;;;;;23.20;63.09;93284.91;5108411;28;20218;-68
2023/08/21 05:06:03;;;;;;;12.38;10.82;;;;;;;23.33;62.37;93289.88;5080110;28;20239;-67
2023/08/21 05:08:28;;;;;;;11.85;10.90;;;;;;;23.31;62.74;93278.81;5078906;28;20223;-67
2023/08/21 05:10:58;;;;;;;12.82;11.65;;;;;;;23.47;62.20;93292.16;5078320;28;20188;-70
2023/08/21 05:13:23;;;;;;;11.85;10.65;;;;;;;23.52;62.33;93306.00;5075191;28;20232;-70
2023/08/21 05:15:56;;;;;;;13.40;11.73;;;;;;;23.47;63.00;93297.50;5088488;28;20191;-68
2023/08/21 05:18:23;;;;;;;13.07;11.73;;;;;;;23.47;63.27;93303.59;5089733;28;20230;-68
2023/08/21 05:20:48;;;;;;;16.45;12.18;;;;;;;23.62;62.39;93308.19;5091092;28;20187;-68
2023/08/21 05:23:14;;;;;;;13.88;11.07;;;;;;;23.53;62.82;93304.88;5090114;28;20213;-68
2023/08/21 05:25:40;;;;;;;12.93;11.82;;;;;;;23.59;63.25;93306.22;5090734;28;20210;-68
2023/08/21 05:28:06;;;;;;;14.02;12.65;;;;;;;23.69;63.08;93310.25;5090742;28;20211;-68
2023/08/21 05:30:32;;;;;;;14.90;11.88;;;;;;;23.59;63.05;93306.22;5090965;28;20166;-68
2023/08/21 05:32:57;;;;;;;14.18;11.48;;;;;;;23.48;65.90;93294.50;5083998;28;20230;-68
2023/08/21 05:35:23;;;;;;;14.88;11.88;;;;;;;23.60;64.47;93305.09;5070665;28;20167;-68
2023/08/21 05:37:48;;;;;;;15.95;12.30;;;;;;;23.40;66.39;93298.09;5069947;28;20290;-68
2023/08/21 05:40:14;;;;;;;18.45;13.75;;;;;;;23.34;66.63;93309.31;5070162;28;20189;-68
2023/08/21 05:42:39;;;;;;;14.13;13.02;;;;;;;23.64;65.81;93303.28;5069950;28;20223;-68
2023/08/21 05:45:05;;;;;;;18.23;13.15;;;;;;;23.85;65.15;93307.59;5069534;28;20195;-68
2023/08/21 05:47:31;;;;;;;14.43;12.88;;;;;;;23.73;64.62;93300.47;5072953;28;20227;-68
2023/08/21 05:49:56;;;;;;;15.32;12.93;;;;;;;23.90;64.12;93310.00;5090896;28;20194;-68
2023/08/21 05:52:22;;;;;;;13.35;12.13;;;;;;;24.55;61.79;93299.41;5090418;28;20262;-68
2023/08/21 05:54:48;;;;;;;13.32;11.93;;;;;;;24.53;62.26;93300.91;5090738;28;20171;-68
2023/08/21 05:57:14;;;;;;;13.65;12.15;;;;;;;24.61;59.56;93297.25;5090240;28;20191;-69
2023/08/21 05:59:44;;;;;;;13.93;12.38;;;;;;;24.73;60.32;93294.50;5090426;28;20210;-68
2023/08/21 06:02:10;;;;;;;14.00;12.13;;;;;;;24.26;61.10;93296.44;5089787;28;20214;-69
2023/08/21 06:04:37;;;;;;;15.40;11.48;;;;;;;25.59;57.30;93312.69;5090856;28;20177;-68
2023/08/21 06:07:03;;;;;;;12.60;11.40;;;;;;;28.01;50.00;93315.47;5091555;28;20223;-69
2023/08/21 06:09:29;;;;;;;12.95;11.65;;;;;;;32.06;39.52;93326.84;5090047;28;20227;-68
2023/08/21 06:11:55;;;;;;;11.00;9.82;;;;;;;34.24;34.13;93337.50;5090608;28;20185;-68
2023/08/21 06:14:28;;;;;;;12.05;10.80;;;;;;;35.53;31.35;93354.44;5089998;28;20276;-68
2023/08/21 06:16:53;;;;;;;12.40;11.23;;;;;;;33.08;34.39;93346.94;5089671;28;20224;-69
2023/08/21 06:19:19;;;;;;;12.48;11.35;;;;;;;30.49;39.70;93339.50;5088907;28;20234;-68
2023/08/21 06:21:44;;;;;;;13.27;11.98;;;;;;;29.13;43.46;93332.50;5090332;28;20215;-68
2023/08/21 06:24:09;;;;;;;15.35;12.18;;;;;;;27.78;47.63;93328.25;5103111;28;20900;-69
2023/08/21 06:26:35;;;;;;;14.07;11.07;;;;;;;26.94;49.36;93324.50;5090078;28;20196;-69
2023/08/21 06:29:00;;;;;;;19.02;12.60;;;;;;;26.84;51.11;93330.47;5074193;28;20228;-68
2023/08/21 06:31:25;;;;;;;13.63;12.32;;;;;;;26.96;50.30;93322.25;5070144;28;20211;-68
2023/08/21 06:33:51;;;;;;;13.23;11.95;;;;;;;26.14;52.61;93325.56;5083764;28;20251;-68
2023/08/21 06:36:16;;;;;;;11.82;10.57;;;;;;;25.61;54.55;93323.81;5090211;28;20184;-69
2023/08/21 06:38:42;;;;;;;13.18;11.77;;;;;;;25.79;53.38;93324.16;5089524;28;20211;-68
2023/08/21 06:41:07;;;;;;;13.35;11.15;;;;;;;26.21;53.50;93325.66;5089975;28;20181;-68
2023/08/21 06:43:32;;;;;;;14.38;12.13;;;;;;;26.53;52.61;93329.63;5089584;28;20224;-68
2023/08/21 06:45:58;;;;;;;14.90;11.20;;;;;;;26.41;52.01;93331.75;5090614;28;20227;-68
2023/08/21 07:05:02;;;;;;;17.02;13.13;;;;;;;26.25;51.80;93341.78;5140803;27;20310;-69
2023/08/21 07:07:28;;;;;;;16.65;12.63;;;;;;;26.24;50.19;93341.00;5125760;27;20187;-71
2023/08/21 07:09:53;;;;;;;13.80;12.55;;;;;;;26.38;50.96;93340.50;5091248;28;20194;-70
2023/08/21 07:12:19;;;;;;;15.02;11.95;;;;;;;26.78;48.75;93335.41;5087211;28;20192;-69
2023/08/21 07:14:44;;;;;;;14.07;12.63;;;;;;;27.07;49.02;93339.25;5070332;28;20208;-71
2023/08/21 07:17:09;;;;;;;13.27;12.18;;;;;;;27.14;47.97;93345.47;5066221;28;20189;-70
2023/08/21 07:19:35;;;;;;;16.35;11.50;;;;;;;26.95;47.33;93337.56;5088390;28;20196;-69
2023/08/21 07:22:00;;;;;;;14.90;12.25;;;;;;;26.81;49.46;93325.84;5086755;28;20206;-69
2023/08/21 07:24:25;;;;;;;17.20;15.10;;;;;;;27.01;48.87;93338.00;5060358;28;20236;-70
2023/08/21 07:26:51;;;;;;;12.82;11.32;;;;;;;26.98;48.47;93336.03;5063389;28;20181;-69
2023/08/21 07:29:16;;;;;;;13.05;11.75;;;;;;;26.83;48.37;93334.31;5065803;28;20224;-70
2023/08/21 07:31:42;;;;;;;13.48;12.15;;;;;;;26.89;47.84;93339.00;5066838;28;20213;-73
2023/08/21 07:34:08;;;;;;;13.18;11.88;;;;;;;27.22;47.88;93330.25;5082376;28;20237;-72
2023/08/21 07:36:33;;;;;;;13.40;12.38;;;;;;;27.21;48.71;93336.75;5088655;28;20189;-72
2023/08/21 07:38:58;;;;;;;13.10;11.90;;;;;;;27.74;45.31;93338.94;5085086;28;20254;-72
2023/08/21 07:41:24;;;;;;;13.70;12.35;;;;;;;27.48;47.01;93338.25;5091428;28;20204;-71
2023/08/21 07:43:49;;;;;;;13.75;11.70;;;;;;;27.31;46.58;93333.44;5085508;28;20239;-70
2023/08/21 07:46:18;;;;;;;13.52;12.07;;;;;;;27.66;46.54;93339.25;5090032;28;20176;-71
2023/08/21 07:48:46;;;;;;;13.57;12.27;;;;;;;27.28;46.59;93334.19;5085671;28;20209;-71
2023/08/21 07:51:12;;;;;;;11.38;10.38;;;;;;;27.34;45.88;93341.56;5084046;28;20192;-70
2023/08/21 07:53:38;;;;;;;14.27;12.98;;;;;;;27.72;44.52;93305.56;5087189;28;20343;-70
2023/08/21 07:56:04;;;;;;;12.50;11.40;;;;;;;28.08;44.11;93337.00;5089428;28;20185;-70
2023/08/21 07:58:30;;;;;;;13.40;12.20;;;;;;;28.11;44.04;93333.63;5075842;28;20228;-71
2023/08/21 08:00:56;;;;;;;11.98;10.85;;;;;;;28.32;44.59;93331.09;5073351;28;20196;-71
2023/08/21 08:03:21;;;;;;;12.40;11.20;;;;;;;28.10;46.17;93338.19;5077041;28;20240;-71
2023/08/21 08:05:47;;;;;;;12.68;11.10;;;;;;;28.10;44.56;93327.47;5117227;28;20192;-71
2023/08/21 08:08:12;;;;;;;12.10;11.05;;;;;;;28.46;43.85;93333.91;5089170;28;20265;-70
2023/08/21 08:10:39;;;;;;;13.05;11.88;;;;;;;28.82;42.34;93334.97;5088152;28;20212;-71
2023/08/21 08:13:05;;;;;;;16.83;11.25;;;;;;;28.47;43.16;93332.00;5091622;28;20248;-71
2023/08/21 08:15:30;;;;;;;13.60;12.30;;;;;;;28.10;43.50;93326.69;5078480;28;20181;-72
2023/08/21 08:17:57;;;;;;;11.88;10.77;;;;;;;28.65;43.17;93332.94;5076996;28;20245;-72
2023/08/21 08:20:22;;;;;;;12.00;10.70;;;;;;;28.60;42.16;93328.69;5081802;28;20209;-73
2023/08/21 08:22:48;;;;;;;11.63;10.70;;;;;;;28.83;41.43;93326.53;5079766;28;20288;-72
2023/08/21 08:25:13;;;;;;;11.70;10.60;;;;;;;28.47;42.89;93324.72;5071394;28;20190;-72
2023/08/21 08:27:39;;;;;;;12.68;11.48;;;;;;;28.54;42.24;93330.16;5074527;28;20213;-72
2023/08/21 08:30:05;;;;;;;11.85;10.82;;;;;;;28.95;41.42;93328.16;5075799;28;20194;-72
2023/08/21 08:32:31;;;;;;;12.82;11.60;;;;;;;28.48;42.04;93323.59;5073939;28;20221;-72
2023/08/21 08:34:56;;;;;;;17.13;11.05;;;;;;;28.25;43.29;93309.56;5072436;28;20198;-72
2023/08/21 08:37:21;;;;;;;12.02;11.07;;;;;;;28.47;41.66;93329.31;5071516;28;20184;-72
2023/08/21 08:39:47;;;;;;;12.32;11.13;;;;;;;28.39;42.30;93317.72;5075574;28;20232;-72
2023/08/21 08:42:14;;;;;;;11.13;10.10;;;;;;;28.57;42.71;93323.25;5081191;28;20231;-72
2023/08/21 08:44:41;;;;;;;11.77;10.77;;;;;;;28.64;41.21;93307.97;5065187;28;20210;-70
2023/08/21 08:47:07;;;;;;;14.35;10.90;;;;;;;28.63;40.94;93313.72;5071111;28;20211;-70
2023/08/21 08:49:33;;;;;;;11.77;10.85;;;;;;;28.59;41.07;93300.28;5070913;28;20217;-69
2023/08/21 08:51:59;;;;;;;10.82;10.02;;;;;;;28.39;41.50;93306.97;5074509;28;20207;-72
2023/08/21 08:54:25;;;;;;;13.23;10.85;;;;;;;28.20;41.71;93304.53;5055722;28;20234;-70
2023/08/21 08:56:51;;;;;;;11.05;10.25;;;;;;;28.73;40.12;93315.72;5055853;28;20224;-69
2023/08/21 08:59:17;;;;;;;11.55;10.35;;;;;;;28.83;39.75;93302.34;5052333;28;20266;-70
2023/08/21 09:01:42;;;;;;;11.13;10.02;;;;;;;28.66;40.08;93278.81;5053813;28;20277;-71
2023/08/21 09:04:08;;;;;;;11.70;10.73;;;;;;;29.27;40.05;93313.75;5048482;28;20233;-70
2023/08/21 09:06:34;;;;;;;11.30;10.50;;;;;;;29.48;39.52;93310.38;5050580;28;20190;-71
2023/08/21 09:08:59;;;;;;;11.90;11.00;;;;;;;29.40;40.11;93314.94;5071087;28;20225;-71
2023/08/21 09:11:25;;;;;;;12.77;11.68;;;;;;;29.59;38.77;93311.94;5072425;28;20193;-70
2023/08/21 09:13:52;;;;;;;11.70;10.85;;;;;;;29.36;39.29;93306.09;5057925;28;20229;-70
2023/08/21 09:16:19;;;;;;;11.75;10.52;;;;;;;29.26;38.62;93306.81;5053932;28;20200;-70
2023/08/21 09:18:51;;;;;;;11.38;10.38;;;;;;;29.35;39.35;93303.78;5051507;28;20224;-70
2023/08/21 09:21:21;;;;;;;11.75;9.52;;;;;;;29.59;38.52;93301.19;5049389;28;20190;-70
2023/08/21 09:23:48;;;;;;;10.88;10.02;;;;;;;29.47;37.79;93306.91;5081357;28;20230;-71
2023/08/21 09:26:23;;;;;;;11.55;10.35;;;;;;;29.68;36.62;93298.19;5048913;28;20245;-71
2023/08/21 09:28:50;;;;;;;12.43;10.73;;;;;;;29.49;38.17;93310.00;5049099;28;20223;-71
2023/08/21 09:31:16;;;;;;;11.35;10.45;;;;;;;29.69;37.74;93305.88;5050546;28;20186;-71
2023/08/21 09:33:42;;;;;;;11.35;10.45;;;;;;;29.55;37.47;93295.03;5049273;28;20232;-71
2023/08/21 09:36:10;;;;;;;11.10;10.20;;;;;;;29.50;37.25;93300.78;5049692;28;20227;-71
2023/08/21 09:38:38;;;;;;;11.98;10.73;;;;;;;29.26;38.10;93287.97;5067153;28;20217;-71
2023/08/21 09:41:03;;;;;;;11.77;10.52;;;;;;;29.14;37.77;93293.69;5070835;28;20832;-71
2023/08/21 09:43:29;;;;;;;13.25;10.23;;;;;;;29.76;37.82;93298.97;5075863;28;20241;-70
2023/08/21 09:45:55;;;;;;;11.57;10.77;;;;;;;29.93;37.02;93292.84;5069400;28;20199;-71
2023/08/21 09:48:27;;;;;;;13.48;11.10;;;;;;;29.97;37.62;93296.31;5069373;28;20232;-71
2023/08/21 09:50:53;;;;;;;11.05;10.13;;;;;;;30.08;36.32;93294.41;5070451;28;20217;-70
2023/08/21 09:53:23;;;;;;;11.77;10.60;;;;;;;30.32;35.89;93291.00;5073281;28;20248;-70
2023/08/21 09:55:53;;;;;;;11.60;10.60;;;;;;;30.27;36.98;93288.69;5071770;28;20188;-70
2023/08/21 09:58:19;;;;;;;11.52;10.60;;;;;;;30.43;36.59;93294.47;5069519;28;20217;-70
2023/08/21 10:00:48;;;;;;;11.07;10.05;;;;;;;30.15;36.10;93286.34;5070731;28;20252;-70
2023/08/21 10:03:17;;;;;;;11.55;10.35;;;;;;;30.26;36.42;93270.97;5074601;28;20265;-70
2023/08/21 10:05:43;;;;;;;10.68;9.88;;;;;;;30.24;36.88;93289.44;5060937;28;20207;-72
2023/08/21 10:08:09;;;;;;;12.32;10.02;;;;;;;30.00;35.59;93279.38;5077036;28;20284;-71
2023/08/21 10:10:37;;;;;;;10.57;9.63;;;;;;;29.90;36.13;93275.50;5071080;28;20181;-70
2023/08/21 10:13:05;;;;;;;11.60;10.73;;;;;;;30.08;36.37;93272.84;5069322;28;20225;-70
2023/08/21 10:15:33;;;;;;;11.32;10.32;;;;;;;30.44;34.85;93279.81;5070232;28;20224;-70
2023/08/21 10:18:17;;;;;;;10.60;9.82;;;;;;;30.40;33.62;93268.28;5069230;28;20285;-70
2023/08/21 10:20:43;;;;;;;12.02;10.85;;;;;;;29.83;35.05;93269.34;5069937;28;20184;-70
2023/08/21 10:23:08;;;;;;;10.43;9.63;;;;;;;29.73;35.97;93266.25;5071690;28;20242;-69
2023/08/21 10:25:41;;;;;;;11.52;10.40;;;;;;;29.93;35.78;93263.22;5069694;28;20192;-70
2023/08/21 10:28:07;;;;;;;11.20;10.10;;;;;;;30.20;35.03;93259.00;5061606;28;20232;-73
2023/08/21 10:30:33;;;;;;;10.57;9.63;;;;;;;30.43;35.20;93270.19;5049547;28;20186;-73
2023/08/21 10:32:59;;;;;;;10.77;9.90;;;;;;;29.95;35.10;93255.53;5056125;28;20229;-73
2023/08/21 10:35:30;;;;;;;10.88;9.98;;;;;;;30.06;35.90;93246.28;5102085;28;20181;-74
2023/08/21 10:38:17;;;;;;;10.20;9.45;;;;;;;30.42;34.80;93247.09;5068679;28;20240;-74
2023/08/21 10:41:06;;;;;;;11.32;10.10;;;;;;;30.63;33.71;93247.06;5069535;28;20603;-74
2023/08/21 10:43:45;;;;;;;10.43;9.65;;;;;;;30.03;35.22;93243.59;5068881;28;20252;-74
2023/08/21 10:46:11;;;;;;;12.02;10.77;;;;;;;30.62;36.28;93232.03;5059118;28;20187;-74
2023/08/21 10:48:38;;;;;;;10.65;9.70;;;;;;;30.88;33.71;93234.34;5067235;28;20225;-74
2023/08/21 10:51:07;;;;;;;10.68;9.85;;;;;;;30.75;34.04;93239.38;5069100;28;20195;-74
2023/08/21 10:53:33;;;;;;;10.48;9.68;;;;;;;30.51;33.42;93234.75;5078075;28;20228;-75
2023/08/21 10:56:05;;;;;;;9.90;9.07;;;;;;;30.84;31.62;93241.66;5077227;28;20212;-74
2023/08/21 10:58:45;;;;;;;10.65;9.82;;;;;;;31.14;32.56;93231.16;5065357;28;20245;-74
2023/08/21 11:01:13;;;;;;;9.52;8.75;;;;;;;31.39;32.54;93228.38;5069420;28;20256;-74
2023/08/21 11:03:39;;;;;;;10.45;9.48;;;;;;;31.38;32.27;93230.28;5055807;28;20277;-74
2023/08/21 11:06:09;;;;;;;9.82;8.90;;;;;;;31.74;31.29;93228.19;5049104;28;20197;-74
2023/08/21 11:08:36;;;;;;;11.10;10.10;;;;;;;31.62;30.69;93228.63;5047156;28;20225;-74
2023/08/21 11:11:02;;;;;;;12.23;9.90;;;;;;;31.21;32.46;93212.22;5048980;28;20194;-74
2023/08/21 11:13:28;;;;;;;9.98;8.95;;;;;;;31.83;31.37;93218.50;5048460;28;20229;-74
2023/08/21 11:16:05;;;;;;;10.85;9.85;;;;;;;31.84;30.74;93221.97;5049594;28;20216;-75
2023/08/21 11:18:40;;;;;;;10.40;9.52;;;;;;;31.87;31.09;93215.78;5035032;28;20214;-71
2023/08/21 11:21:10;;;;;;;10.05;9.35;;;;;;;32.04;31.53;93221.06;5047763;28;20182;-72
2023/08/21 11:23:39;;;;;;;17.38;11.02;;;;;;;31.88;32.49;93212.69;5048415;28;20252;-72
2023/08/21 11:26:07;;;;;;;11.43;10.57;;;;;;;31.92;32.01;93213.44;5048489;28;20634;-71
2023/08/21 11:28:32;;;;;;;10.95;10.07;;;;;;;32.00;31.74;93212.19;5048654;28;20221;-71
2023/08/21 11:30:59;;;;;;;10.65;9.73;;;;;;;31.98;31.22;93219.16;5048623;28;20193;-72
2023/08/21 11:33:26;;;;;;;11.13;10.07;;;;;;;31.91;31.73;93211.13;5059020;28;20232;-71